createdAt,value
2019-03-06T00:01:08.372Z,19.87
2019-03-06T00:02:15.730Z,23.73
2019-03-06T00:03:26.496Z,21.00
2019-03-06T00:04:42.318Z,19.60
2019-03-06T00:05:49.637Z,21.50
2019-03-06T00:07:08.553Z,21.70
2019-03-06T00:08:15.542Z,18.73
2019-03-06T00:09:36.800Z,21.07
2019-03-06T00:10:44.999Z,18.98
2019-03-06T00:13:24.028Z,21.85
2019-03-06T00:15:01.232Z,20.00
2019-03-06T00:16:03.668Z,21.87
2019-03-06T00:17:09.727Z,21.93
2019-03-06T00:18:14.307Z,22.25
2019-03-06T00:19:21.340Z,21.23
2019-03-06T00:20:28.376Z,19.65
2019-03-06T00:21:35.924Z,19.32
2019-03-06T00:22:44.780Z,20.23
2019-03-06T00:23:49.687Z,20.80
2019-03-06T00:24:56.184Z,22.22
2019-03-06T00:26:16.033Z,19.32
2019-03-06T00:27:16.566Z,18.67
2019-03-06T00:28:26.277Z,16.40
2019-03-06T00:29:33.152Z,18.40
2019-03-06T00:30:39.982Z,20.27
2019-03-06T00:32:18.786Z,21.17
2019-03-06T00:33:13.744Z,22.87
2019-03-06T00:34:18.954Z,21.17
2019-03-06T00:35:25.132Z,24.67
2019-03-06T00:36:36.375Z,21.37
2019-03-06T00:37:42.889Z,22.77
2019-03-06T00:38:51.412Z,21.52
2019-03-06T00:40:06.609Z,22.73
2019-03-06T00:41:24.683Z,20.80
2019-03-06T00:42:34.360Z,21.07
2019-03-06T00:43:42.886Z,17.32
2019-03-06T00:45:00.711Z,22.73
2019-03-06T00:46:30.089Z,22.55
2019-03-06T00:52:09.778Z,23.60
2019-03-06T00:52:14.089Z,21.60
2019-03-06T00:52:59.341Z,23.32
2019-03-06T00:54:30.586Z,24.52
2019-03-06T00:55:56.423Z,19.60
2019-03-06T00:57:04.426Z,20.72
2019-03-06T00:58:21.907Z,17.45
2019-03-06T00:59:28.203Z,25.95
2019-03-06T01:00:36.055Z,22.73
2019-03-06T01:01:49.601Z,19.80
2019-03-06T01:02:53.775Z,21.77
2019-03-06T01:05:21.429Z,19.65
2019-03-06T01:06:44.141Z,18.87
2019-03-06T01:07:51.129Z,21.90
2019-03-06T01:09:10.474Z,24.30
2019-03-06T01:10:19.681Z,21.15
2019-03-06T01:11:30.689Z,22.10
2019-03-06T01:13:54.067Z,23.20
2019-03-06T01:15:01.181Z,21.20
2019-03-06T01:16:28.693Z,22.40
2019-03-06T01:17:26.131Z,24.45
2019-03-06T01:18:49.738Z,23.95
2019-03-06T01:19:50.355Z,23.30
2019-03-06T01:21:02.002Z,24.72
2019-03-06T01:22:19.679Z,20.32
2019-03-06T01:23:28.842Z,22.45
2019-03-06T01:24:41.753Z,21.02
2019-03-06T01:26:04.883Z,23.30
2019-03-06T01:27:11.461Z,21.20
2019-03-06T01:28:20.161Z,23.12
2019-03-06T01:29:34.931Z,22.02
2019-03-06T01:31:01.049Z,25.12
2019-03-06T01:32:02.984Z,23.20
2019-03-06T01:34:55.443Z,25.40
2019-03-06T01:36:10.434Z,21.68
2019-03-06T01:37:39.983Z,23.40
2019-03-06T01:38:11.311Z,22.48
2019-03-06T01:38:54.642Z,20.15
2019-03-06T01:40:30.073Z,23.60
2019-03-06T01:42:00.051Z,23.83
2019-03-06T01:43:32.352Z,23.80
2019-03-06T01:44:47.247Z,25.97
2019-03-06T01:45:46.844Z,23.65
2019-03-06T01:48:31.898Z,22.05
2019-03-06T01:51:16.163Z,23.20
2019-03-06T01:52:25.729Z,24.52
2019-03-06T01:53:41.682Z,22.87
2019-03-06T01:54:50.133Z,25.30
2019-03-06T01:56:00.130Z,22.80
2019-03-06T01:57:09.247Z,22.02
2019-03-06T01:58:18.656Z,26.93
2019-03-06T01:59:38.526Z,26.77
2019-03-06T02:00:43.740Z,25.57
2019-03-06T02:02:40.008Z,24.30
2019-03-06T02:03:00.081Z,27.02
2019-03-06T02:04:24.965Z,27.52
2019-03-06T02:05:21.347Z,25.08
2019-03-06T02:06:42.233Z,26.40
2019-03-06T02:07:43.154Z,24.63
2019-03-06T02:08:59.304Z,27.10
2019-03-06T02:10:06.080Z,24.40
2019-03-06T02:11:13.397Z,29.07
2019-03-06T02:12:25.794Z,22.40
2019-03-06T02:13:35.703Z,23.40
2019-03-06T02:14:44.495Z,25.08
2019-03-06T02:16:12.447Z,28.45
2019-03-06T02:17:12.311Z,25.72
2019-03-06T02:18:26.451Z,25.92
2019-03-06T02:19:28.888Z,27.42
2019-03-06T02:20:39.417Z,25.10
2019-03-06T02:21:46.697Z,26.73
2019-03-06T02:22:54.088Z,25.15
2019-03-06T02:24:07.593Z,24.70
2019-03-06T02:25:17.270Z,26.70
2019-03-06T02:26:23.600Z,27.05
2019-03-06T02:27:34.700Z,24.47
2019-03-06T02:28:37.336Z,26.42
2019-03-06T02:29:43.862Z,24.72
2019-03-06T02:30:52.851Z,23.95
2019-03-06T02:32:14.117Z,26.12
2019-03-06T02:33:25.735Z,21.87
2019-03-06T02:34:33.972Z,24.75
2019-03-06T02:35:43.763Z,23.83
2019-03-06T02:36:52.707Z,24.40
2019-03-06T02:38:01.492Z,26.20
2019-03-06T02:39:16.730Z,27.75
2019-03-06T02:40:23.928Z,24.72
2019-03-06T02:41:33.507Z,25.77
2019-03-06T02:42:42.146Z,28.35
2019-03-06T02:43:54.308Z,25.62
2019-03-06T02:45:01.799Z,28.10
2019-03-06T02:47:46.274Z,29.10
2019-03-06T02:49:08.247Z,24.37
2019-03-06T02:50:17.451Z,28.00
2019-03-06T02:51:29.480Z,25.65
2019-03-06T02:52:52.645Z,30.80
2019-03-06T02:53:58.185Z,25.37
2019-03-06T02:55:06.617Z,27.07
2019-03-06T02:56:23.896Z,30.10
2019-03-06T02:57:28.492Z,26.48
2019-03-06T02:58:50.942Z,29.40
2019-03-06T03:00:07.268Z,24.80
2019-03-06T03:01:32.814Z,30.68
2019-03-06T03:02:41.629Z,27.37
2019-03-06T03:04:16.831Z,28.27
2019-03-06T03:05:35.462Z,27.67
2019-03-06T03:06:51.509Z,26.23
2019-03-06T03:08:08.833Z,29.67
2019-03-06T03:09:35.449Z,27.75
2019-03-06T03:10:40.789Z,27.35
2019-03-06T03:11:50.353Z,26.02
2019-03-06T03:13:00.490Z,28.67
2019-03-06T03:16:16.127Z,27.77
2019-03-06T03:17:03.869Z,28.45
2019-03-06T03:18:11.152Z,26.05
2019-03-06T03:19:17.905Z,30.32
2019-03-06T03:20:23.768Z,29.30
2019-03-06T03:21:34.759Z,30.40
2019-03-06T03:22:40.236Z,28.15
2019-03-06T03:23:47.327Z,27.50
2019-03-06T03:25:03.622Z,30.40
2019-03-06T03:26:30.329Z,28.70
2019-03-06T03:27:30.050Z,26.97
2019-03-06T03:28:38.256Z,29.05
2019-03-06T03:29:46.447Z,26.77
2019-03-06T03:30:59.278Z,28.77
2019-03-06T03:32:08.879Z,31.45
2019-03-06T03:33:21.570Z,24.37
2019-03-06T03:35:50.090Z,30.35
2019-03-06T03:36:59.187Z,27.17
2019-03-06T03:38:09.348Z,28.65
2019-03-06T03:39:17.120Z,28.00
2019-03-06T03:40:25.260Z,24.32
2019-03-06T03:41:30.412Z,15.98
2019-03-06T03:42:37.614Z,18.02
2019-03-06T03:43:47.795Z,14.33
2019-03-06T03:44:56.069Z,12.45
2019-03-06T03:46:26.485Z,9.00
2019-03-06T03:47:13.865Z,10.78
2019-03-06T03:48:19.889Z,9.23
2019-03-06T03:49:34.029Z,8.40
2019-03-06T03:50:41.873Z,7.42
2019-03-06T03:51:47.932Z,8.58
2019-03-06T03:53:01.045Z,6.80
2019-03-06T03:54:16.880Z,7.00
2019-03-06T03:55:41.644Z,4.85
2019-03-06T03:56:51.669Z,5.75
2019-03-06T03:57:57.023Z,5.45
2019-03-06T03:59:02.824Z,4.42
2019-03-06T04:00:13.161Z,3.92
2019-03-06T04:02:29.711Z,3.02
2019-03-06T04:03:29.087Z,2.83
2019-03-06T04:04:39.193Z,4.55
2019-03-06T04:05:53.270Z,2.85
2019-03-06T04:06:58.068Z,3.47
2019-03-06T04:08:08.514Z,2.70
2019-03-06T04:09:07.072Z,2.58
2019-03-06T04:10:35.970Z,3.10
2019-03-06T04:13:00.635Z,3.02
2019-03-06T04:14:20.639Z,3.12
2019-03-06T04:16:47.891Z,3.33
2019-03-06T04:17:55.780Z,2.65
2019-03-06T04:19:11.131Z,3.37
2019-03-06T04:20:18.761Z,2.50
2019-03-06T04:21:31.686Z,2.75
2019-03-06T04:22:37.701Z,2.85
2019-03-06T04:23:48.747Z,2.55
2019-03-06T04:24:55.934Z,2.77
2019-03-06T04:26:02.827Z,3.02
2019-03-06T04:27:18.263Z,2.85
2019-03-06T04:28:30.178Z,2.83
2019-03-06T04:29:38.976Z,3.70
2019-03-06T04:30:47.107Z,4.08
2019-03-06T04:31:54.335Z,3.45
2019-03-06T04:33:00.313Z,3.08
2019-03-06T04:34:06.975Z,3.05
2019-03-06T04:35:19.257Z,3.15
2019-03-06T04:36:29.278Z,3.22
2019-03-06T04:38:24.012Z,2.30
2019-03-06T04:38:48.963Z,2.87
2019-03-06T04:39:58.694Z,4.28
2019-03-06T04:41:12.250Z,5.03
2019-03-06T04:42:23.938Z,3.55
2019-03-06T04:43:31.196Z,3.22
2019-03-06T04:44:37.828Z,4.08
2019-03-06T04:46:01.081Z,2.62
2019-03-06T04:46:57.193Z,5.35
2019-03-06T04:48:03.598Z,4.47
2019-03-06T04:49:09.405Z,4.92
2019-03-06T04:50:17.912Z,4.90
2019-03-06T04:51:23.775Z,2.72
2019-03-06T04:52:30.230Z,3.50
2019-03-06T04:53:38.359Z,4.22
2019-03-06T04:54:44.090Z,4.05
2019-03-06T04:55:53.172Z,3.75
2019-03-06T04:56:59.358Z,4.03
2019-03-06T04:58:06.335Z,3.22
2019-03-06T04:59:13.251Z,3.20
2019-03-06T05:00:24.308Z,3.45
2019-03-06T05:01:30.232Z,2.90
2019-03-06T05:02:46.249Z,3.55
2019-03-06T05:03:45.320Z,3.55
2019-03-06T05:04:56.740Z,4.47
2019-03-06T05:06:06.237Z,4.62
2019-03-06T05:07:14.945Z,5.13
2019-03-06T05:08:22.846Z,4.17
2019-03-06T05:09:33.804Z,4.30
2019-03-06T05:10:38.072Z,3.85
2019-03-06T05:11:48.293Z,4.03
2019-03-06T05:12:54.409Z,5.05
2019-03-06T05:14:00.463Z,4.10
2019-03-06T05:15:14.298Z,6.20
2019-03-06T05:16:22.066Z,3.33
2019-03-06T05:17:44.590Z,3.55
2019-03-06T05:18:54.004Z,4.42
2019-03-06T05:19:58.383Z,3.83
2019-03-06T05:21:11.105Z,3.55
2019-03-06T05:22:30.420Z,2.62
2019-03-06T05:23:48.483Z,3.87
2019-03-06T05:24:49.401Z,3.72
2019-03-06T05:26:23.642Z,3.75
2019-03-06T05:27:14.580Z,4.42
2019-03-06T05:28:24.234Z,7.00
2019-03-06T05:30:17.299Z,3.60
2019-03-06T05:31:28.366Z,5.90
2019-03-06T05:32:38.810Z,7.12
2019-03-06T05:33:46.434Z,4.83
2019-03-06T05:35:10.419Z,6.72
2019-03-06T05:36:33.009Z,6.30
2019-03-06T05:38:13.779Z,6.47
2019-03-06T05:39:32.566Z,7.45
2019-03-06T05:40:48.932Z,7.20
2019-03-06T05:41:55.694Z,6.53
2019-03-06T05:43:18.235Z,6.50
2019-03-06T05:44:32.537Z,6.50
2019-03-06T05:45:49.788Z,5.20
2019-03-06T05:46:56.438Z,5.35
2019-03-06T05:49:13.670Z,5.90
2019-03-06T05:49:51.563Z,4.22
2019-03-06T05:51:09.970Z,6.25
2019-03-06T05:51:43.860Z,4.05
2019-03-06T05:53:10.894Z,4.92
2019-03-06T05:54:13.772Z,5.35
2019-03-06T05:56:02.414Z,3.83
2019-03-06T05:57:09.507Z,4.78
2019-03-06T06:00:00.219Z,4.78
2019-03-06T06:01:22.972Z,4.10
2019-03-06T06:02:19.058Z,7.37
2019-03-06T06:03:36.628Z,4.50
2019-03-06T06:04:59.649Z,4.55
2019-03-06T06:08:34.620Z,5.60
2019-03-06T06:09:20.358Z,7.67
2019-03-06T06:10:09.827Z,4.92
2019-03-06T06:11:40.293Z,6.58
2019-03-06T06:12:55.314Z,4.87
2019-03-06T06:13:56.540Z,6.12
2019-03-06T06:17:58.088Z,5.70
2019-03-06T06:19:14.898Z,5.25
2019-03-06T06:20:36.614Z,5.25
2019-03-06T06:22:39.001Z,4.55
2019-03-06T06:24:45.054Z,6.12
2019-03-06T06:25:02.669Z,6.05
2019-03-06T06:26:12.250Z,5.85
2019-03-06T06:27:17.513Z,6.05
2019-03-06T06:28:46.105Z,6.53
2019-03-06T06:30:01.885Z,4.30
2019-03-06T06:31:01.412Z,5.45
2019-03-06T06:33:49.419Z,5.00
2019-03-06T06:35:01.955Z,7.67
2019-03-06T06:36:15.852Z,5.40
2019-03-06T06:38:06.242Z,6.50
2019-03-06T06:38:28.412Z,6.85
2019-03-06T06:40:24.848Z,5.42
2019-03-06T06:42:47.643Z,8.08
2019-03-06T06:43:12.956Z,5.53
2019-03-06T06:45:30.972Z,7.97
2019-03-06T06:47:52.518Z,6.17
2019-03-06T06:50:02.998Z,7.80
2019-03-06T06:52:01.068Z,7.75
2019-03-06T06:53:26.606Z,11.73
2019-03-06T06:54:58.479Z,10.85
2019-03-06T06:56:23.010Z,9.08
2019-03-06T06:57:36.418Z,7.95
2019-03-06T07:01:06.829Z,8.73
2019-03-06T07:02:44.514Z,10.88
2019-03-06T07:04:38.451Z,8.25
2019-03-06T07:07:48.750Z,11.83
2019-03-06T07:09:03.091Z,7.87
2019-03-06T07:10:32.926Z,7.62
2019-03-06T07:11:44.891Z,8.35
2019-03-06T07:13:06.402Z,8.00
2019-03-06T07:14:14.899Z,7.50
2019-03-06T07:17:15.603Z,7.15
2019-03-06T07:18:53.388Z,8.90
2019-03-06T07:20:09.674Z,10.13
2019-03-06T07:21:29.258Z,10.98
2019-03-06T07:22:41.416Z,11.38
2019-03-06T07:23:52.558Z,9.90
2019-03-06T07:25:01.054Z,9.38
2019-03-06T07:26:22.376Z,9.03
2019-03-06T07:29:04.652Z,7.45
2019-03-06T07:29:30.112Z,8.10
2019-03-06T07:30:31.956Z,10.10
2019-03-06T07:33:21.019Z,11.35
2019-03-06T07:34:53.393Z,8.88
2019-03-06T07:36:19.159Z,7.08
2019-03-06T07:37:29.818Z,8.80
2019-03-06T07:41:34.460Z,12.37
2019-03-06T07:44:30.070Z,7.60
2019-03-06T07:45:49.432Z,8.13
2019-03-06T07:47:00.784Z,10.65
2019-03-06T07:50:07.144Z,9.25
2019-03-06T07:51:06.434Z,7.40
2019-03-06T07:52:19.269Z,8.45
2019-03-06T07:54:00.976Z,8.33
2019-03-06T07:55:10.321Z,9.48
2019-03-06T07:56:23.656Z,7.80
2019-03-06T07:57:36.588Z,8.58
2019-03-06T07:59:00.274Z,20.75
2019-03-06T08:00:06.286Z,14.58
2019-03-06T08:01:17.056Z,10.25
2019-03-06T08:02:54.605Z,10.45
2019-03-06T08:04:10.647Z,15.03
2019-03-06T08:05:15.038Z,17.05
2019-03-06T08:06:21.610Z,14.25
2019-03-06T08:07:26.202Z,17.52
2019-03-06T08:08:31.761Z,15.43
2019-03-06T08:09:38.939Z,15.93
2019-03-06T08:10:47.216Z,14.20
2019-03-06T08:11:56.932Z,15.58
2019-03-06T08:13:10.396Z,15.98
2019-03-06T08:14:35.272Z,14.50
2019-03-06T08:15:41.090Z,16.10
2019-03-06T08:16:47.476Z,20.57
2019-03-06T08:18:09.018Z,17.70
2019-03-06T08:19:23.947Z,17.65
2019-03-06T08:20:41.227Z,19.57
2019-03-06T08:21:47.106Z,18.73
2019-03-06T08:23:05.037Z,20.65
2019-03-06T08:24:27.839Z,23.92
2019-03-06T08:25:48.643Z,21.82
2019-03-06T08:27:03.022Z,22.55
2019-03-06T08:28:09.055Z,17.62
2019-03-06T08:29:14.378Z,20.10
2019-03-06T08:30:20.818Z,22.75
2019-03-06T08:31:29.351Z,25.00
2019-03-06T08:32:33.645Z,28.17
2019-03-06T08:33:38.997Z,27.15
2019-03-06T08:34:45.007Z,27.50
2019-03-06T08:35:52.146Z,27.37
2019-03-06T08:37:00.053Z,28.40
2019-03-06T08:38:09.093Z,26.87
2019-03-06T08:39:20.268Z,33.50
2019-03-06T08:40:31.054Z,51.18
2019-03-06T08:41:45.502Z,42.78
2019-03-06T08:42:52.642Z,29.05
2019-03-06T08:44:01.974Z,34.63
2019-03-06T08:45:08.559Z,27.15
2019-03-06T08:46:19.925Z,36.38
2019-03-06T08:47:31.805Z,32.63
2019-03-06T08:48:39.200Z,28.57
2019-03-06T08:49:51.891Z,31.97
2019-03-06T08:50:58.289Z,35.15
2019-03-06T08:52:14.127Z,37.58
2019-03-06T08:53:29.818Z,32.70
2019-03-06T08:54:40.468Z,35.48
2019-03-06T08:57:26.876Z,34.27
2019-03-06T08:58:34.380Z,33.90
2019-03-06T08:59:45.914Z,35.83
2019-03-06T09:01:09.516Z,37.95
2019-03-06T09:02:15.959Z,36.40
2019-03-06T09:03:31.708Z,36.85
2019-03-06T09:06:19.957Z,34.55
2019-03-06T09:07:27.278Z,34.55
2019-03-06T09:08:50.583Z,39.18
2019-03-06T09:10:14.762Z,37.98
2019-03-06T09:11:33.796Z,40.23
2019-03-06T09:12:50.122Z,43.05
2019-03-06T09:14:11.063Z,36.25
2019-03-06T09:15:23.885Z,35.63
2019-03-06T09:16:29.991Z,39.78
2019-03-06T09:17:36.043Z,36.65
2019-03-06T09:18:44.497Z,39.38
2019-03-06T09:19:53.120Z,40.38
2019-03-06T09:21:02.131Z,43.73
2019-03-06T09:22:15.865Z,37.23
2019-03-06T09:23:30.723Z,40.83
2019-03-06T09:24:47.045Z,43.85
2019-03-06T09:26:04.847Z,42.17
2019-03-06T09:27:11.000Z,44.15
2019-03-06T09:28:20.665Z,43.95
2019-03-06T09:29:45.183Z,44.53
2019-03-06T09:30:53.691Z,41.65
2019-03-06T09:32:05.145Z,45.78
2019-03-06T09:33:11.084Z,41.23
2019-03-06T09:34:17.178Z,44.10
2019-03-06T09:35:51.430Z,44.27
2019-03-06T09:37:07.545Z,43.92
2019-03-06T09:38:32.487Z,46.68
2019-03-06T09:39:45.651Z,50.25
2019-03-06T09:40:58.487Z,43.15
2019-03-06T09:42:18.560Z,42.43
2019-03-06T09:43:27.893Z,46.18
2019-03-06T09:44:37.389Z,48.23
2019-03-06T09:45:54.971Z,50.98
2019-03-06T09:47:17.383Z,49.40
2019-03-06T09:48:41.033Z,49.48
2019-03-06T09:49:53.427Z,48.00
2019-03-06T09:51:10.123Z,48.78
2019-03-06T09:52:23.803Z,54.03
2019-03-06T09:53:47.434Z,48.35
2019-03-06T09:54:55.081Z,47.53
2019-03-06T09:56:02.949Z,50.23
2019-03-06T09:57:22.266Z,53.13
2019-03-06T09:58:34.451Z,45.50
2019-03-06T09:59:52.603Z,48.98
2019-03-06T10:01:10.367Z,49.13
2019-03-06T10:02:38.129Z,46.83
2019-03-06T10:03:52.879Z,48.17
2019-03-06T10:06:52.020Z,44.25
2019-03-06T10:08:15.199Z,48.13
2019-03-06T10:09:40.868Z,46.92
2019-03-06T10:10:57.757Z,50.83
2019-03-06T10:12:11.159Z,48.58
2019-03-06T10:13:18.817Z,49.33
2019-03-06T10:14:35.329Z,49.18
2019-03-06T10:15:56.527Z,50.30
2019-03-06T10:17:18.398Z,44.93
2019-03-06T10:18:26.846Z,47.55
2019-03-06T10:19:38.237Z,47.17
2019-03-06T10:20:44.603Z,49.33
2019-03-06T10:21:52.471Z,52.58
2019-03-06T10:22:59.508Z,49.42
2019-03-06T10:24:06.926Z,51.60
2019-03-06T10:25:12.002Z,47.65
2019-03-06T10:26:16.237Z,46.20
2019-03-06T10:27:23.400Z,50.28
2019-03-06T10:28:29.193Z,47.30
2019-03-06T10:29:37.766Z,44.55
2019-03-06T10:30:44.158Z,45.30
2019-03-06T10:32:00.347Z,48.35
2019-03-06T10:33:02.768Z,44.65
2019-03-06T10:34:30.525Z,44.20
2019-03-06T10:35:19.982Z,43.30
2019-03-06T10:36:27.497Z,45.25
2019-03-06T10:37:37.515Z,37.73
2019-03-06T10:38:43.862Z,46.13
2019-03-06T10:40:08.547Z,42.80
2019-03-06T10:41:15.049Z,49.18
2019-03-06T10:42:22.082Z,39.40
2019-03-06T10:43:36.021Z,41.73
2019-03-06T10:44:40.322Z,37.15
2019-03-06T10:46:14.267Z,41.00
2019-03-06T10:47:15.153Z,39.18
2019-03-06T10:48:21.609Z,36.23
2019-03-06T10:49:36.365Z,35.08
2019-03-06T10:50:44.642Z,37.85
2019-03-06T10:51:52.702Z,38.10
2019-03-06T10:53:01.461Z,36.13
2019-03-06T10:54:06.094Z,34.18
2019-03-06T10:55:14.597Z,33.80
2019-03-06T10:56:19.842Z,35.78
2019-03-06T10:57:26.886Z,33.80
2019-03-06T10:58:32.369Z,32.25
2019-03-06T10:59:38.170Z,33.30
2019-03-06T11:00:46.090Z,37.45
2019-03-06T11:01:54.422Z,38.75
2019-03-06T11:03:00.111Z,40.63
2019-03-06T11:04:21.091Z,39.48
2019-03-06T11:05:34.625Z,35.85
2019-03-06T11:06:42.893Z,33.85
2019-03-06T11:07:49.928Z,35.28
2019-03-06T11:08:59.634Z,33.30
2019-03-06T11:10:23.070Z,41.80
2019-03-06T11:11:16.597Z,38.55
2019-03-06T11:12:36.723Z,40.73
2019-03-06T11:13:27.764Z,39.42
2019-03-06T11:14:33.397Z,46.28
2019-03-06T11:15:42.560Z,40.28
2019-03-06T11:16:54.621Z,36.90
2019-03-06T11:18:01.429Z,39.50
2019-03-06T11:19:09.786Z,40.10
2019-03-06T11:20:30.079Z,41.35
2019-03-06T11:21:34.557Z,37.28
2019-03-06T11:22:39.124Z,35.52
2019-03-06T11:23:47.339Z,37.90
2019-03-06T11:24:54.983Z,39.73
2019-03-06T11:26:01.985Z,43.70
2019-03-06T11:27:09.197Z,39.90
2019-03-06T11:28:15.922Z,39.18
2019-03-06T11:29:24.159Z,38.00
2019-03-06T11:30:49.775Z,35.88
2019-03-06T11:31:55.995Z,38.85
2019-03-06T11:33:04.937Z,40.15
2019-03-06T11:34:10.011Z,39.73
2019-03-06T11:35:19.048Z,38.70
2019-03-06T11:36:26.170Z,48.13
2019-03-06T11:37:35.263Z,41.00
2019-03-06T11:38:39.771Z,69.10
2019-03-06T11:39:46.537Z,62.43
2019-03-06T11:40:51.424Z,54.42
2019-03-06T11:41:59.107Z,40.55
2019-03-06T11:43:03.912Z,36.53
2019-03-06T11:44:08.287Z,39.20
2019-03-06T11:45:19.899Z,38.70
2019-03-06T11:46:25.253Z,41.23
2019-03-06T11:47:29.636Z,35.08
2019-03-06T11:48:35.889Z,35.08
2019-03-06T11:49:41.631Z,32.25
2019-03-06T11:50:49.252Z,33.60
2019-03-06T11:51:56.491Z,31.37
2019-03-06T11:53:03.892Z,32.28
2019-03-06T11:54:11.741Z,30.08
2019-03-06T11:55:19.041Z,29.60
2019-03-06T11:56:23.874Z,33.30
2019-03-06T11:57:29.380Z,31.25
2019-03-06T11:58:36.449Z,29.72
2019-03-06T11:59:40.819Z,32.28
2019-03-06T12:00:50.231Z,28.23
2019-03-06T12:01:59.814Z,28.02
2019-03-06T12:03:10.381Z,27.30
2019-03-06T12:04:14.881Z,27.37
2019-03-06T12:05:22.291Z,26.70
2019-03-06T12:06:27.415Z,27.45
2019-03-06T12:07:31.795Z,28.90
2019-03-06T12:08:42.869Z,22.58
2019-03-06T12:09:47.603Z,22.35
2019-03-06T12:10:55.370Z,24.82
2019-03-06T12:12:01.920Z,27.22
2019-03-06T12:13:09.230Z,26.07
2019-03-06T12:14:13.479Z,23.38
2019-03-06T12:15:17.786Z,22.15
2019-03-06T12:16:22.130Z,19.75
2019-03-06T12:17:26.304Z,19.70
2019-03-06T12:18:31.620Z,20.17
2019-03-06T12:19:38.979Z,23.20
2019-03-06T12:20:45.151Z,21.85
2019-03-06T12:21:51.650Z,20.77
2019-03-06T12:22:56.202Z,19.87
2019-03-06T12:24:05.133Z,23.02
2019-03-06T12:25:13.932Z,17.85
2019-03-06T12:26:25.103Z,26.20
2019-03-06T12:27:35.626Z,20.25
2019-03-06T12:28:40.720Z,24.00
2019-03-06T12:29:47.860Z,54.58
2019-03-06T12:30:54.374Z,26.27
2019-03-06T12:32:06.804Z,21.00
2019-03-06T12:33:20.202Z,21.93
2019-03-06T12:34:26.548Z,20.48
2019-03-06T12:35:34.199Z,22.00
2019-03-06T12:36:38.504Z,21.15
2019-03-06T12:37:47.127Z,18.98
2019-03-06T12:38:54.020Z,20.60
2019-03-06T12:39:58.462Z,20.37
2019-03-06T12:41:09.972Z,19.32
2019-03-06T12:42:16.670Z,21.65
2019-03-06T12:43:23.029Z,22.65
2019-03-06T12:44:30.100Z,19.55
2019-03-06T12:45:36.568Z,21.95
2019-03-06T12:46:42.868Z,22.65
2019-03-06T12:47:55.330Z,21.80
2019-03-06T12:48:59.748Z,19.17
2019-03-06T12:50:09.004Z,24.85
2019-03-06T12:51:15.744Z,20.27
2019-03-06T12:52:20.350Z,19.37
2019-03-06T12:53:28.069Z,20.20
2019-03-06T12:54:34.089Z,19.67
2019-03-06T12:55:39.896Z,18.87
2019-03-06T12:56:45.675Z,20.00
2019-03-06T12:57:59.130Z,18.05
2019-03-06T12:59:03.808Z,19.87
2019-03-06T13:00:26.040Z,21.70
2019-03-06T13:01:31.194Z,19.05
2019-03-06T13:02:37.556Z,17.67
2019-03-06T13:03:44.698Z,17.82
2019-03-06T13:04:53.291Z,22.30
2019-03-06T13:05:57.679Z,16.82
2019-03-06T13:07:04.705Z,19.00
2019-03-06T13:08:19.222Z,18.60
2019-03-06T13:09:17.292Z,19.98
2019-03-06T13:10:24.710Z,18.60
2019-03-06T13:11:29.124Z,17.87
2019-03-06T13:12:38.117Z,19.10
2019-03-06T13:13:41.713Z,17.87
2019-03-06T13:14:47.943Z,19.25
2019-03-06T13:15:54.911Z,20.08
2019-03-06T13:17:01.714Z,20.48
2019-03-06T13:18:06.750Z,19.42
2019-03-06T13:19:13.872Z,23.40
2019-03-06T13:20:20.653Z,21.80
2019-03-06T13:21:26.463Z,20.48
2019-03-06T13:22:32.319Z,18.85
2019-03-06T13:23:36.777Z,21.75
2019-03-06T13:24:42.762Z,21.45
2019-03-06T13:25:47.023Z,19.37
2019-03-06T13:26:51.328Z,20.77
2019-03-06T13:27:59.679Z,18.95
2019-03-06T13:29:06.666Z,19.95
2019-03-06T13:30:15.708Z,22.15
2019-03-06T13:31:20.628Z,21.33
2019-03-06T13:32:26.781Z,19.98
2019-03-06T13:33:33.710Z,16.95
2019-03-06T13:34:39.551Z,22.77
2019-03-06T13:35:46.852Z,18.37
2019-03-06T13:36:51.159Z,19.62
2019-03-06T13:37:59.368Z,21.30
2019-03-06T13:39:07.049Z,24.35
2019-03-06T13:40:18.212Z,22.15
2019-03-06T13:41:21.735Z,22.87
2019-03-06T13:42:26.714Z,19.42
2019-03-06T13:43:33.626Z,17.77
2019-03-06T13:44:41.190Z,19.50
2019-03-06T13:45:47.110Z,20.15
2019-03-06T13:46:55.234Z,20.15
2019-03-06T13:49:33.025Z,19.10
2019-03-06T13:51:04.072Z,17.52
2019-03-06T13:51:58.440Z,18.65
2019-03-06T13:53:05.712Z,21.00
2019-03-06T13:54:11.659Z,18.02
2019-03-06T13:55:20.816Z,18.85
2019-03-06T13:56:39.022Z,22.00
2019-03-06T14:02:18.682Z,27.60
2019-03-06T14:03:34.114Z,23.32
2019-03-06T14:04:40.860Z,27.15
2019-03-06T14:05:46.484Z,22.75
2019-03-06T14:06:52.643Z,20.75
2019-03-06T14:08:04.135Z,29.92
2019-03-06T14:10:23.601Z,19.12
2019-03-06T14:11:23.730Z,20.70
2019-03-06T14:12:29.576Z,18.23
2019-03-06T14:13:34.801Z,17.12
2019-03-06T14:14:39.073Z,25.37
2019-03-06T14:15:53.666Z,17.90
2019-03-06T14:16:56.639Z,17.75
2019-03-06T14:18:04.936Z,19.60
2019-03-06T14:19:11.648Z,16.50
2019-03-06T14:20:21.412Z,17.00
2019-03-06T14:21:26.640Z,17.40
2019-03-06T14:22:31.581Z,19.85
2019-03-06T14:23:35.911Z,19.37
2019-03-06T14:24:40.034Z,20.25
2019-03-06T14:25:44.448Z,19.25
2019-03-06T14:26:50.940Z,20.77
2019-03-06T14:27:55.190Z,23.77
2019-03-06T14:28:59.966Z,17.62
2019-03-06T14:30:14.556Z,19.87
2019-03-06T14:31:20.589Z,22.95
2019-03-06T14:32:26.229Z,20.23
2019-03-06T14:33:30.485Z,19.40
2019-03-06T14:34:36.689Z,21.00
2019-03-06T14:35:41.077Z,18.60
2019-03-06T14:36:46.471Z,16.48
2019-03-06T14:37:51.707Z,18.70
2019-03-06T14:38:56.017Z,26.10
2019-03-06T14:40:09.451Z,29.25
2019-03-06T14:41:07.876Z,19.30
2019-03-06T14:42:12.573Z,18.90
2019-03-06T14:43:20.763Z,21.50
2019-03-06T14:44:25.993Z,20.37
2019-03-06T14:45:32.460Z,26.12
2019-03-06T14:46:39.248Z,19.12
2019-03-06T14:47:46.724Z,18.82
2019-03-06T14:48:57.566Z,18.15
2019-03-06T14:50:04.330Z,19.00
2019-03-06T14:51:13.971Z,20.23
2019-03-06T14:52:22.158Z,22.00
2019-03-06T14:53:31.616Z,20.80
2019-03-06T14:54:35.984Z,21.10
2019-03-06T14:55:40.540Z,22.52
2019-03-06T14:56:46.359Z,16.67
2019-03-06T14:57:53.657Z,23.83
2019-03-06T14:59:02.093Z,20.15
2019-03-06T15:00:18.089Z,23.02
2019-03-06T15:01:23.920Z,20.10
2019-03-06T15:02:28.434Z,19.10
2019-03-06T15:03:32.808Z,21.17
2019-03-06T15:04:39.572Z,17.75
2019-03-06T15:05:47.573Z,21.30
2019-03-06T15:06:54.534Z,20.57
2019-03-06T15:08:09.630Z,21.85
2019-03-06T15:09:19.789Z,24.37
2019-03-06T15:10:27.034Z,17.00
2019-03-06T15:11:33.878Z,23.35
2019-03-06T15:12:38.334Z,23.10
2019-03-06T15:13:42.600Z,19.52
2019-03-06T15:14:48.238Z,20.00
2019-03-06T15:15:54.907Z,18.70
2019-03-06T15:17:06.639Z,20.27
2019-03-06T15:18:15.406Z,16.55
2019-03-06T15:19:21.295Z,16.97
2019-03-06T15:20:28.746Z,21.52
2019-03-06T15:21:40.184Z,47.17
2019-03-06T15:22:50.382Z,22.55
2019-03-06T15:23:54.829Z,19.73
2019-03-06T15:25:03.810Z,22.15
2019-03-06T15:26:11.414Z,21.55
2019-03-06T15:27:17.087Z,22.30
2019-03-06T15:28:24.704Z,16.00
2019-03-06T15:29:29.613Z,17.82
2019-03-06T15:30:37.050Z,17.95
2019-03-06T15:31:41.998Z,18.10
2019-03-06T15:32:47.180Z,18.98
2019-03-06T15:33:51.503Z,20.27
2019-03-06T15:34:55.772Z,19.50
2019-03-06T15:36:01.527Z,20.75
2019-03-06T15:37:19.887Z,19.60
2019-03-06T15:38:25.271Z,21.75
2019-03-06T15:39:42.193Z,20.60
2019-03-06T15:40:40.612Z,18.00
2019-03-06T15:41:46.572Z,17.25
2019-03-06T15:42:51.007Z,19.27
2019-03-06T15:43:55.469Z,17.32
2019-03-06T15:44:59.811Z,22.45
2019-03-06T15:46:05.742Z,21.55
2019-03-06T15:47:10.129Z,17.82
2019-03-06T15:48:15.897Z,20.65
2019-03-06T15:49:24.106Z,21.20
2019-03-06T15:50:29.028Z,19.90
2019-03-06T15:51:34.618Z,21.05
2019-03-06T15:52:43.624Z,15.30
2019-03-06T15:53:49.708Z,17.27
2019-03-06T15:54:55.642Z,17.07
2019-03-06T15:56:02.612Z,18.92
2019-03-06T15:57:10.942Z,17.57
2019-03-06T15:58:16.809Z,16.77
2019-03-06T15:59:26.730Z,18.87
2019-03-06T16:00:45.755Z,20.30
2019-03-06T16:01:43.949Z,23.75
2019-03-06T16:02:52.430Z,14.28
2019-03-06T16:03:58.418Z,18.73
2019-03-06T16:05:06.209Z,35.40
2019-03-06T16:06:20.144Z,48.65
2019-03-06T16:07:19.169Z,37.35
2019-03-06T16:08:24.480Z,28.45
2019-03-06T16:09:30.618Z,25.92
2019-03-06T16:10:38.034Z,23.47
2019-03-06T16:11:45.755Z,21.48
2019-03-06T16:12:51.654Z,22.87
2019-03-06T16:13:56.451Z,20.23
2019-03-06T16:15:02.296Z,16.40
2019-03-06T16:16:08.648Z,21.52